Pittsburgh, Pennsylvania
Traffic Map
Current Weather Conditions
Pittsburgh, Pennsylvania
Clear
Clear

Feels Like: 0°
Wind Chill: Ceiling: Unl
Heat Index: Visibility: 10mi
Dew Point: -7° Wind: 8mph
Humidity: 47% Direction: 190° (S)
Pressure: 30.09in Gusts: 0mph
Raw Report DataKAGC 071453Z 19007KT 10SM CLR 03/M07 A3009 RMK AO2 SLP203 T00331072 58010
Traffic Incident Summary
Active as of:
Severity:
Category:
InformationThere was an issue retrieving the traffic information for this location. Please try a different location or try again shortly.
Advertisements
Track Severe Weather on mobile